sensor_id;sensor_type;location;lat;lon;timestamp;pressure;altitude;pressure_sealevel;temperature;humidity
12211;BME280;6168;42.658;23.298;2022-07-06T04:00:22;64278.03;;;-139.92;100.00
12211;BME280;6168;42.658;23.298;2022-07-06T04:02:49;64298.84;;;-139.92;100.00
12211;BME280;6168;42.658;23.298;2022-07-06T04:05:16;64286.34;;;-139.92;100.00
12211;BME280;6168;42.658;23.298;2022-07-06T04:07:48;64294.69;;;-139.92;100.00
12211;BME280;6168;42.658;23.298;2022-07-06T04:10:15;64340.50;;;-139.92;100.00
12211;BME280;6168;42.658;23.298;2022-07-06T04:12:42;64271.78;;;-139.92;100.00
12211;BME280;6168;42.658;23.298;2022-07-06T04:15:10;64311.34;;;-139.92;100.00
12211;BME280;6168;42.658;23.298;2022-07-06T04:17:38;64261.34;;;-139.92;100.00
12211;BME280;6168;42.658;23.298;2022-07-06T04:20:22;64311.34;;;-139.92;100.00
12211;BME280;6168;42.658;23.298;2022-07-06T04:22:50;64311.34;;;-139.92;100.00
12211;BME280;6168;42.658;23.298;2022-07-06T04:25:17;64300.94;;;-139.92;100.00
12211;BME280;6168;42.658;23.298;2022-07-06T04:27:44;64278.03;;;-139.92;100.00
12211;BME280;6168;42.658;23.298;2022-07-06T04:30:11;64315.50;;;-139.92;100.00
12211;BME280;6168;42.658;23.298;2022-07-06T04:32:40;64300.94;;;-139.92;100.00
12211;BME280;6168;42.658;23.298;2022-07-06T04:35:07;64280.09;;;-139.92;100.00
12211;BME280;6168;42.658;23.298;2022-07-06T04:37:34;64265.53;;;-139.92;100.00
12211;BME280;6168;42.658;23.298;2022-07-06T04:40:01;64269.69;;;-139.92;100.00
12211;BME280;6168;42.658;23.298;2022-07-06T04:42:28;64298.84;;;-139.92;100.00
12211;BME280;6168;42.658;23.298;2022-07-06T04:44:55;64269.69;;;-139.92;100.00
12211;BME280;6168;42.658;23.298;2022-07-06T04:47:22;64292.59;;;-139.92;100.00
12211;BME280;6168;42.658;23.298;2022-07-06T04:49:50;64271.78;;;-139.92;100.00
12211;BME280;6168;42.658;23.298;2022-07-06T04:52:17;64246.78;;;-139.92;100.00
12211;BME280;6168;42.658;23.298;2022-07-06T04:54:44;64269.69;;;-139.92;100.00
12211;BME280;6168;42.658;23.298;2022-07-06T04:57:11;64296.75;;;-139.92;100.00
12211;BME280;6168;42.658;23.298;2022-07-06T04:59:38;64334.25;;;-139.92;100.00
12211;BME280;6168;42.658;23.298;2022-07-06T05:02:04;64296.75;;;-139.92;100.00
12211;BME280;6168;42.658;23.298;2022-07-06T05:04:31;64298.84;;;-139.92;100.00
12211;BME280;6168;42.658;23.298;2022-07-06T05:07:00;64288.44;;;-139.92;100.00
12211;BME280;6168;42.658;23.298;2022-07-06T05:09:27;64294.69;;;-139.92;100.00
12211;BME280;6168;42.658;23.298;2022-07-06T05:11:54;64265.53;;;-139.92;100.00
12211;BME280;6168;42.658;23.298;2022-07-06T05:14:21;64305.09;;;-139.92;100.00
12211;BME280;6168;42.658;23.298;2022-07-06T05:16:47;64286.34;;;-139.92;100.00
12211;BME280;6168;42.658;23.298;2022-07-06T05:19:14;64271.78;;;-139.92;100.00
12211;BME280;6168;42.658;23.298;2022-07-06T05:21:41;64307.16;;;-139.92;100.00
12211;BME280;6168;42.658;23.298;2022-07-06T05:24:10;64290.50;;;-139.92;100.00
12211;BME280;6168;42.658;23.298;2022-07-06T05:26:36;64315.50;;;-139.92;100.00
12211;BME280;6168;42.658;23.298;2022-07-06T05:29:03;64309.25;;;-139.92;100.00
12211;BME280;6168;42.658;23.298;2022-07-06T05:31:30;64275.94;;;-139.92;100.00
12211;BME280;6168;42.658;23.298;2022-07-06T05:33:57;64278.03;;;-139.92;100.00
12211;BME280;6168;42.658;23.298;2022-07-06T05:36:24;64290.50;;;-139.92;100.00
12211;BME280;6168;42.658;23.298;2022-07-06T05:38:51;64309.25;;;-139.92;100.00
12211;BME280;6168;42.658;23.298;2022-07-06T05:41:19;64303.00;;;-139.92;100.00
12211;BME280;6168;42.658;23.298;2022-07-06T05:43:46;64319.66;;;-139.92;100.00
12211;BME280;6168;42.658;23.298;2022-07-06T05:46:13;64282.19;;;-139.92;100.00
12211;BME280;6168;42.658;23.298;2022-07-06T05:48:39;64273.84;;;-139.92;100.00
12211;BME280;6168;42.658;23.298;2022-07-06T05:51:24;64257.19;;;-139.92;100.00
12211;BME280;6168;42.658;23.298;2022-07-06T05:53:51;64257.19;;;-139.92;100.00
12211;BME280;6168;42.658;23.298;2022-07-06T05:56:19;64278.03;;;-139.92;100.00
12211;BME280;6168;42.658;23.298;2022-07-06T05:58:46;64257.19;;;-139.92;100.00
12211;BME280;6168;42.658;23.298;2022-07-06T06:01:13;64244.69;;;-139.92;100.00
12211;BME280;6168;42.658;23.298;2022-07-06T06:03:40;64269.69;;;-139.92;100.00
12211;BME280;6168;42.658;23.298;2022-07-06T06:06:07;64259.28;;;-139.92;100.00
12211;BME280;6168;42.658;23.298;2022-07-06T06:08:34;64286.34;;;-139.92;100.00
12211;BME280;6168;42.658;23.298;2022-07-06T06:11:00;64294.69;;;-139.92;100.00
12211;BME280;6168;42.658;23.298;2022-07-06T06:13:29;64248.88;;;-139.92;100.00
12211;BME280;6168;42.658;23.298;2022-07-06T06:15:56;64259.28;;;-139.92;100.00
12211;BME280;6168;42.658;23.298;2022-07-06T06:18:22;64253.03;;;-139.92;100.00
12211;BME280;6168;42.658;23.298;2022-07-06T06:20:49;64282.19;;;-139.92;100.00
12211;BME280;6168;42.658;23.298;2022-07-06T06:23:16;64284.25;;;-139.92;100.00
12211;BME280;6168;42.658;23.298;2022-07-06T06:25:43;64269.69;;;-139.92;100.00
12211;BME280;6168;42.658;23.298;2022-07-06T06:28:11;64269.69;;;-139.92;100.00
12211;BME280;6168;42.658;23.298;2022-07-06T06:30:39;64246.78;;;-139.92;100.00
12211;BME280;6168;42.658;23.298;2022-07-06T06:33:07;64236.38;;;-139.92;100.00
12211;BME280;6168;42.658;23.298;2022-07-06T06:35:35;64278.03;;;-139.92;100.00
12211;BME280;6168;42.658;23.298;2022-07-06T06:38:02;64323.81;;;-139.92;100.00
12211;BME280;6168;42.658;23.298;2022-07-06T06:40:28;64282.19;;;-139.92;100.00
12211;BME280;6168;42.658;23.298;2022-07-06T06:42:56;64263.44;;;-139.92;100.00
12211;BME280;6168;42.658;23.298;2022-07-06T06:45:22;64282.19;;;-139.92;100.00
12211;BME280;6168;42.658;23.298;2022-07-06T06:47:51;64288.44;;;-139.92;100.00
12211;BME280;6168;42.658;23.298;2022-07-06T06:50:18;64228.03;;;-139.92;100.00
12211;BME280;6168;42.658;23.298;2022-07-06T06:52:45;64303.00;;;-139.92;100.00
12211;BME280;6168;42.658;23.298;2022-07-06T06:55:11;64244.69;;;-139.92;100.00
12211;BME280;6168;42.658;23.298;2022-07-06T06:57:38;64275.94;;;-139.92;100.00
12211;BME280;6168;42.658;23.298;2022-07-06T07:00:06;64253.03;;;-139.92;100.00
12211;BME280;6168;42.658;23.298;2022-07-06T07:02:33;64240.53;;;-139.92;100.00
12211;BME280;6168;42.658;23.298;2022-07-06T07:05:02;64257.19;;;-139.92;100.00
12211;BME280;6168;42.658;23.298;2022-07-06T07:07:29;64211.38;;;-139.92;100.00
12211;BME280;6168;42.658;23.298;2022-07-06T07:09:56;64228.03;;;-139.92;100.00
12211;BME280;6168;42.658;23.298;2022-07-06T07:12:23;64230.13;;;-139.92;100.00
12211;BME280;6168;42.658;23.298;2022-07-06T07:14:49;64242.63;;;-139.92;100.00
12211;BME280;6168;42.658;23.298;2022-07-06T07:17:16;64228.03;;;-139.92;100.00
12211;BME280;6168;42.658;23.298;2022-07-06T07:19:43;64257.19;;;-139.92;100.00
12211;BME280;6168;42.658;23.298;2022-07-06T07:22:12;64244.69;;;-139.92;100.00
12211;BME280;6168;42.658;23.298;2022-07-06T07:24:39;64265.53;;;-139.92;100.00
12211;BME280;6168;42.658;23.298;2022-07-06T07:27:06;64223.88;;;-139.92;100.00
12211;BME280;6168;42.658;23.298;2022-07-06T07:29:32;64238.44;;;-139.92;100.00
12211;BME280;6168;42.658;23.298;2022-07-06T07:31:59;64315.50;;;-139.92;100.00
12211;BME280;6168;42.658;23.298;2022-07-06T07:34:26;64257.19;;;-139.92;100.00
12211;BME280;6168;42.658;23.298;2022-07-06T07:36:53;64236.38;;;-139.92;100.00
12211;BME280;6168;42.658;23.298;2022-07-06T07:39:21;64253.03;;;-139.92;100.00
12211;BME280;6168;42.658;23.298;2022-07-06T07:41:48;64269.69;;;-139.92;100.00
12211;BME280;6168;42.658;23.298;2022-07-06T07:44:16;64215.56;;;-139.92;100.00
12211;BME280;6168;42.658;23.298;2022-07-06T07:46:43;64253.03;;;-139.92;100.00
12211;BME280;6168;42.658;23.298;2022-07-06T07:49:10;64232.22;;;-139.92;100.00
12211;BME280;6168;42.658;23.298;2022-07-06T07:51:37;64207.22;;;-139.92;100.00
12211;BME280;6168;42.658;23.298;2022-07-06T07:54:04;64269.69;;;-139.92;100.00
12211;BME280;6168;42.658;23.298;2022-07-06T07:56:33;64155.16;;;-139.92;100.00
12211;BME280;6168;42.658;23.298;2022-07-06T07:58:59;64186.41;;;-139.92;100.00
12211;BME280;6168;42.658;23.298;2022-07-06T08:01:26;64211.38;;;-139.92;100.00
12211;BME280;6168;42.658;23.298;2022-07-06T08:03:53;64192.66;;;-139.92;100.00
12211;BME280;6168;42.658;23.298;2022-07-06T08:06:20;64203.06;;;-139.92;100.00
12211;BME280;6168;42.658;23.298;2022-07-06T08:08:47;64215.56;;;-139.92;100.00
12211;BME280;6168;42.658;23.298;2022-07-06T08:11:14;64184.31;;;-139.92;100.00
12211;BME280;6168;42.658;23.298;2022-07-06T08:13:42;64182.22;;;-139.92;100.00
12211;BME280;6168;42.658;23.298;2022-07-06T08:16:09;64163.50;;;-139.92;100.00
12211;BME280;6168;42.658;23.298;2022-07-06T08:18:36;64228.03;;;-139.92;100.00
12211;BME280;6168;42.658;23.298;2022-07-06T08:21:03;64198.88;;;-139.92;100.00
12211;BME280;6168;42.658;23.298;2022-07-06T08:23:31;64221.78;;;-139.92;100.00
12211;BME280;6168;42.658;23.298;2022-07-06T08:26:00;64211.38;;;-139.92;100.00
12211;BME280;6168;42.658;23.298;2022-07-06T08:28:27;64176.00;;;-139.92;100.00
12211;BME280;6168;42.658;23.298;2022-07-06T08:30:55;64186.41;;;-139.92;100.00
12211;BME280;6168;42.658;23.298;2022-07-06T08:33:22;64159.31;;;-139.92;100.00
12211;BME280;6168;42.658;23.298;2022-07-06T08:35:49;64203.06;;;-139.92;100.00
12211;BME280;6168;42.658;23.298;2022-07-06T08:38:15;64205.13;;;-139.92;100.00
12211;BME280;6168;42.658;23.298;2022-07-06T08:40:44;64146.84;;;-139.92;100.00
12211;BME280;6168;42.658;23.298;2022-07-06T08:43:12;64148.91;;;-139.92;100.00
12211;BME280;6168;42.658;23.298;2022-07-06T08:45:40;64132.25;;;-139.92;100.00
12211;BME280;6168;42.658;23.298;2022-07-06T08:48:11;64173.91;;;-139.92;100.00
12211;BME280;6168;42.658;23.298;2022-07-06T08:50:38;64221.78;;;-139.92;100.00
12211;BME280;6168;42.658;23.298;2022-07-06T08:53:05;64188.47;;;-139.92;100.00
12211;BME280;6168;42.658;23.298;2022-07-06T08:55:32;64161.41;;;-139.92;100.00
12211;BME280;6168;42.658;23.298;2022-07-06T08:57:59;64165.56;;;-139.92;100.00
12211;BME280;6168;42.658;23.298;2022-07-06T09:00:26;64180.16;;;-139.92;100.00
12211;BME280;6168;42.658;23.298;2022-07-06T09:02:53;64140.59;;;-139.92;100.00
12211;BME280;6168;42.658;23.298;2022-07-06T09:05:23;64148.91;;;-139.92;100.00
12211;BME280;6168;42.658;23.298;2022-07-06T09:07:52;64153.09;;;-139.92;100.00
12211;BME280;6168;42.658;23.298;2022-07-06T09:10:21;64107.28;;;-139.92;100.00
12211;BME280;6168;42.658;23.298;2022-07-06T09:12:48;64148.91;;;-139.92;100.00
12211;BME280;6168;42.658;23.298;2022-07-06T09:15:15;64155.16;;;-139.92;100.00
12211;BME280;6168;42.658;23.298;2022-07-06T09:17:43;64138.50;;;-139.92;100.00
12211;BME280;6168;42.658;23.298;2022-07-06T09:20:11;64146.84;;;-139.92;100.00
12211;BME280;6168;42.658;23.298;2022-07-06T09:22:39;64144.75;;;-139.92;100.00
12211;BME280;6168;42.658;23.298;2022-07-06T09:25:09;64176.00;;;-139.92;100.00
12211;BME280;6168;42.658;23.298;2022-07-06T09:27:40;64132.25;;;-139.92;100.00
12211;BME280;6168;42.658;23.298;2022-07-06T09:30:09;64161.41;;;-139.92;100.00
12211;BME280;6168;42.658;23.298;2022-07-06T09:32:40;64159.31;;;-139.92;100.00
12211;BME280;6168;42.658;23.298;2022-07-06T09:35:08;64138.50;;;-139.92;100.00
12211;BME280;6168;42.658;23.298;2022-07-06T09:37:46;64198.88;;;-139.92;100.00
12211;BME280;6168;42.658;23.298;2022-07-06T09:40:17;64134.34;;;-139.92;100.00
12211;BME280;6168;42.658;23.298;2022-07-06T09:42:44;64182.22;;;-139.92;100.00
12211;BME280;6168;42.658;23.298;2022-07-06T09:45:11;64171.81;;;-139.92;100.00
12211;BME280;6168;42.658;23.298;2022-07-06T09:47:38;64167.66;;;-139.92;100.00
12211;BME280;6168;42.658;23.298;2022-07-06T09:50:08;64155.16;;;-139.92;100.00
12211;BME280;6168;42.658;23.298;2022-07-06T09:52:35;64140.59;;;-139.92;100.00
12211;BME280;6168;42.658;23.298;2022-07-06T09:55:14;64180.16;;;-139.92;100.00
12211;BME280;6168;42.658;23.298;2022-07-06T09:57:52;64138.50;;;-139.92;100.00
12211;BME280;6168;42.658;23.298;2022-07-06T10:00:19;64105.19;;;-139.92;100.00
12211;BME280;6168;42.658;23.298;2022-07-06T10:02:47;64098.94;;;-139.92;100.00
12211;BME280;6168;42.658;23.298;2022-07-06T10:05:16;64161.41;;;-139.92;100.00
12211;BME280;6168;42.658;23.298;2022-07-06T10:07:44;64159.31;;;-139.92;100.00
12211;BME280;6168;42.658;23.298;2022-07-06T10:10:14;64123.94;;;-139.92;100.00
12211;BME280;6168;42.658;23.298;2022-07-06T10:12:44;64138.50;;;-139.92;100.00
12211;BME280;6168;42.658;23.298;2022-07-06T10:15:11;64178.06;;;-139.92;100.00
12211;BME280;6168;42.658;23.298;2022-07-06T10:17:39;64157.25;;;-139.92;100.00
12211;BME280;6168;42.658;23.298;2022-07-06T10:20:08;64167.66;;;-139.92;100.00
12211;BME280;6168;42.658;23.298;2022-07-06T10:22:35;64128.09;;;-139.92;100.00
12211;BME280;6168;42.658;23.298;2022-07-06T10:25:04;64094.78;;;-139.92;100.00
12211;BME280;6168;42.658;23.298;2022-07-06T10:27:34;64123.94;;;-139.92;100.00
12211;BME280;6168;42.658;23.298;2022-07-06T10:30:02;64101.03;;;-139.92;100.00
12211;BME280;6168;42.658;23.298;2022-07-06T10:32:29;64113.53;;;-139.92;92.45
12211;BME280;6168;42.658;23.298;2022-07-06T10:34:56;64121.84;;;-139.92;98.76
12211;BME280;6168;42.658;23.298;2022-07-06T10:37:24;64144.75;;;-139.92;100.00
12211;BME280;6168;42.658;23.298;2022-07-06T10:39:51;64105.19;;;-139.92;91.47
12211;BME280;6168;42.658;23.298;2022-07-06T10:42:41;64096.88;;;-139.92;83.80
12211;BME280;6168;42.658;23.298;2022-07-06T10:45:11;64082.28;;;-139.92;82.24
12211;BME280;6168;42.658;23.298;2022-07-06T10:47:40;64103.09;;;-139.92;80.66
12211;BME280;6168;42.658;23.298;2022-07-06T10:50:07;64111.44;;;-139.92;77.13
12211;BME280;6168;42.658;23.298;2022-07-06T10:52:50;64109.34;;;-139.92;84.01
12211;BME280;6168;42.658;23.298;2022-07-06T10:55:31;64107.28;;;-139.92;81.74
12211;BME280;6168;42.658;23.298;2022-07-06T10:58:01;64115.59;;;-139.92;86.02
12211;BME280;6168;42.658;23.298;2022-07-06T11:00:47;64142.66;;;-139.92;77.15
12211;BME280;6168;42.658;23.298;2022-07-06T11:03:31;64080.22;;;-139.92;75.87
12211;BME280;6168;42.658;23.298;2022-07-06T11:05:58;64151.00;;;-139.92;76.32
12211;BME280;6168;42.658;23.298;2022-07-06T11:08:43;64098.94;;;-139.92;75.96
12211;BME280;6168;42.658;23.298;2022-07-06T11:11:11;64107.28;;;-139.92;73.92
12211;BME280;6168;42.658;23.298;2022-07-06T11:13:47;64090.63;;;-139.92;69.01
12211;BME280;6168;42.658;23.298;2022-07-06T11:16:14;64065.63;;;-139.92;71.25
12211;BME280;6168;42.658;23.298;2022-07-06T11:18:46;64076.03;;;-139.92;72.65
12211;BME280;6168;42.658;23.298;2022-07-06T11:21:21;64098.94;;;-139.92;70.69
12211;BME280;6168;42.658;23.298;2022-07-06T11:23:50;64082.28;;;-139.92;68.83
12211;BME280;6168;42.658;23.298;2022-07-06T11:26:17;64109.34;;;-139.92;71.18
12211;BME280;6168;42.658;23.298;2022-07-06T11:28:47;64105.19;;;-139.92;71.52
12211;BME280;6168;42.658;23.298;2022-07-06T11:31:16;64132.25;;;-139.92;70.15
12211;BME280;6168;42.658;23.298;2022-07-06T11:33:47;64161.41;;;-139.92;68.66
12211;BME280;6168;42.658;23.298;2022-07-06T11:36:16;64128.09;;;-139.92;69.22
12211;BME280;6168;42.658;23.298;2022-07-06T11:38:43;64123.94;;;-139.92;69.69
12211;BME280;6168;42.658;23.298;2022-07-06T11:41:11;64065.63;;;-139.92;66.86
12211;BME280;6168;42.658;23.298;2022-07-06T11:43:39;64061.47;;;-139.92;67.18
12211;BME280;6168;42.658;23.298;2022-07-06T11:46:20;64061.47;;;-139.92;63.57
12211;BME280;6168;42.658;23.298;2022-07-06T11:48:47;64069.78;;;-139.92;67.81
12211;BME280;6168;42.658;23.298;2022-07-06T11:51:14;64048.97;;;-139.92;67.77
12211;BME280;6168;42.658;23.298;2022-07-06T11:53:45;64098.94;;;-139.92;59.16
12211;BME280;6168;42.658;23.298;2022-07-06T11:56:14;64103.09;;;-139.92;59.18
12211;BME280;6168;42.658;23.298;2022-07-06T11:58:41;64076.03;;;-139.92;60.16
12211;BME280;6168;42.658;23.298;2022-07-06T12:01:13;64082.28;;;-139.92;60.13
12211;BME280;6168;42.658;23.298;2022-07-06T12:03:42;64069.78;;;-139.92;63.36
12211;BME280;6168;42.658;23.298;2022-07-06T12:06:14;64069.78;;;-139.92;63.13
12211;BME280;6168;42.658;23.298;2022-07-06T12:08:42;64098.94;;;-139.92;63.85
12211;BME280;6168;42.658;23.298;2022-07-06T12:11:10;64088.53;;;-139.92;58.08
12211;BME280;6168;42.658;23.298;2022-07-06T12:13:38;64082.28;;;-139.92;58.87
12211;BME280;6168;42.658;23.298;2022-07-06T12:16:10;64086.44;;;-139.92;58.95
12211;BME280;6168;42.658;23.298;2022-07-06T12:18:37;64078.13;;;-139.92;58.50
12211;BME280;6168;42.658;23.298;2022-07-06T12:21:07;64076.03;;;-139.92;59.14
12211;BME280;6168;42.658;23.298;2022-07-06T12:23:41;64069.78;;;-139.92;61.50
12211;BME280;6168;42.658;23.298;2022-07-06T12:26:09;64098.94;;;-139.92;62.11
12211;BME280;6168;42.658;23.298;2022-07-06T12:28:36;64073.97;;;-139.92;61.74
12211;BME280;6168;42.658;23.298;2022-07-06T12:31:03;64096.88;;;-139.92;60.26
12211;BME280;6168;42.658;23.298;2022-07-06T12:33:30;64111.44;;;-139.92;58.74
12211;BME280;6168;42.658;23.298;2022-07-06T12:36:09;64130.19;;;-139.92;59.97
12211;BME280;6168;42.658;23.298;2022-07-06T12:38:44;64117.69;;;-139.92;59.43
12211;BME280;6168;42.658;23.298;2022-07-06T12:41:11;64086.44;;;-139.92;61.70
12211;BME280;6168;42.658;23.298;2022-07-06T12:43:49;64132.25;;;-139.92;64.93
12211;BME280;6168;42.658;23.298;2022-07-06T12:46:27;64082.28;;;-139.92;63.24
12211;BME280;6168;42.658;23.298;2022-07-06T12:48:55;64090.63;;;-139.92;64.42
12211;BME280;6168;42.658;23.298;2022-07-06T12:51:24;64103.09;;;-139.92;63.09
12211;BME280;6168;42.658;23.298;2022-07-06T12:53:51;64123.94;;;-139.92;62.95
12211;BME280;6168;42.658;23.298;2022-07-06T12:56:18;64084.38;;;-139.92;65.92
12211;BME280;6168;42.658;23.298;2022-07-06T12:58:58;64107.28;;;-139.92;62.45
12211;BME280;6168;42.658;23.298;2022-07-06T13:01:25;64073.97;;;-139.92;68.92
12211;BME280;6168;42.658;23.298;2022-07-06T13:03:56;64082.28;;;-139.92;59.38
12211;BME280;6168;42.658;23.298;2022-07-06T13:06:30;64090.63;;;-139.92;58.85
12211;BME280;6168;42.658;23.298;2022-07-06T13:08:57;64078.13;;;-139.92;59.46
12211;BME280;6168;42.658;23.298;2022-07-06T13:11:24;64096.88;;;-139.92;56.53
12211;BME280;6168;42.658;23.298;2022-07-06T13:13:51;64123.94;;;-139.92;58.40
12211;BME280;6168;42.658;23.298;2022-07-06T13:16:18;64098.94;;;-139.92;62.31
12211;BME280;6168;42.658;23.298;2022-07-06T13:18:47;64071.88;;;-139.92;60.72
12211;BME280;6168;42.658;23.298;2022-07-06T13:21:14;64082.28;;;-139.92;56.66
12211;BME280;6168;42.658;23.298;2022-07-06T13:23:42;64088.53;;;-139.92;55.54
12211;BME280;6168;42.658;23.298;2022-07-06T13:26:09;64073.97;;;-139.92;55.96
12211;BME280;6168;42.658;23.298;2022-07-06T13:28:36;64082.28;;;-139.92;57.47
12211;BME280;6168;42.658;23.298;2022-07-06T13:31:03;64034.41;;;-139.92;56.20
12211;BME280;6168;42.658;23.298;2022-07-06T13:33:29;64103.09;;;-139.92;56.91
12211;BME280;6168;42.658;23.298;2022-07-06T13:35:56;64076.03;;;-139.92;55.92
12211;BME280;6168;42.658;23.298;2022-07-06T13:38:23;64088.53;;;-139.92;57.22
12211;BME280;6168;42.658;23.298;2022-07-06T13:40:51;64073.97;;;-139.92;58.54
12211;BME280;6168;42.658;23.298;2022-07-06T13:43:18;64088.53;;;-139.92;59.42
12211;BME280;6168;42.658;23.298;2022-07-06T13:45:45;64094.78;;;-139.92;61.12
12211;BME280;6168;42.658;23.298;2022-07-06T13:48:12;64073.97;;;-139.92;57.05
12211;BME280;6168;42.658;23.298;2022-07-06T13:50:39;64103.09;;;-139.92;55.68
12211;BME280;6168;42.658;23.298;2022-07-06T13:53:06;64132.25;;;-139.92;55.42
12211;BME280;6168;42.658;23.298;2022-07-06T13:55:33;64096.88;;;-139.92;54.45
12211;BME280;6168;42.658;23.298;2022-07-06T13:58:02;64094.78;;;-139.92;53.36
12211;BME280;6168;42.658;23.298;2022-07-06T14:00:29;64084.38;;;-139.92;53.60
12211;BME280;6168;42.658;23.298;2022-07-06T14:02:55;64055.22;;;-139.92;55.12
12211;BME280;6168;42.658;23.298;2022-07-06T14:05:22;64096.88;;;-139.92;50.76
12211;BME280;6168;42.658;23.298;2022-07-06T14:07:49;64065.63;;;-139.92;53.14
12211;BME280;6168;42.658;23.298;2022-07-06T14:10:16;64069.78;;;-139.92;51.25
12211;BME280;6168;42.658;23.298;2022-07-06T14:12:43;64082.28;;;-139.92;50.72
12211;BME280;6168;42.658;23.298;2022-07-06T14:15:11;64065.63;;;-139.92;50.86
12211;BME280;6168;42.658;23.298;2022-07-06T14:17:38;64086.44;;;-139.92;50.28
12211;BME280;6168;42.658;23.298;2022-07-06T14:20:06;64048.97;;;-139.92;49.79
12211;BME280;6168;42.658;23.298;2022-07-06T14:22:33;64057.31;;;-139.92;48.90
12211;BME280;6168;42.658;23.298;2022-07-06T14:25:00;64063.53;;;-139.92;48.58
12211;BME280;6168;42.658;23.298;2022-07-06T14:27:27;64028.16;;;-139.92;49.59
12211;BME280;6168;42.658;23.298;2022-07-06T14:29:54;64034.41;;;-139.92;48.80
12211;BME280;6168;42.658;23.298;2022-07-06T14:32:22;64069.78;;;-139.92;49.26
12211;BME280;6168;42.658;23.298;2022-07-06T14:34:49;64038.56;;;-139.92;49.25
12211;BME280;6168;42.658;23.298;2022-07-06T14:37:16;64046.88;;;-139.92;49.54
12211;BME280;6168;42.658;23.298;2022-07-06T14:39:43;64053.13;;;-139.92;49.21
12211;BME280;6168;42.658;23.298;2022-07-06T14:42:11;64059.38;;;-139.92;49.19
12211;BME280;6168;42.658;23.298;2022-07-06T14:44:38;64048.97;;;-139.92;48.28
12211;BME280;6168;42.658;23.298;2022-07-06T14:47:06;64036.47;;;-139.92;50.26
12211;BME280;6168;42.658;23.298;2022-07-06T14:49:34;64073.97;;;-139.92;52.08
12211;BME280;6168;42.658;23.298;2022-07-06T14:52:01;64088.53;;;-139.92;51.50
12211;BME280;6168;42.658;23.298;2022-07-06T14:54:28;64080.22;;;-139.92;50.73
12211;BME280;6168;42.658;23.298;2022-07-06T14:56:54;64057.31;;;-139.92;47.66
12211;BME280;6168;42.658;23.298;2022-07-06T14:59:21;64055.22;;;-139.92;48.19
12211;BME280;6168;42.658;23.298;2022-07-06T15:01:48;64048.97;;;-139.92;49.22
12211;BME280;6168;42.658;23.298;2022-07-06T15:04:15;64023.97;;;-139.92;48.46
12211;BME280;6168;42.658;23.298;2022-07-06T15:06:43;64057.31;;;-139.92;48.96
12211;BME280;6168;42.658;23.298;2022-07-06T15:09:10;64017.75;;;-139.92;49.54
12211;BME280;6168;42.658;23.298;2022-07-06T15:11:37;64040.66;;;-139.92;48.61
12211;BME280;6168;42.658;23.298;2022-07-06T15:14:04;64053.13;;;-139.92;49.69
12211;BME280;6168;42.658;23.298;2022-07-06T15:16:31;64067.72;;;-139.92;51.96
12211;BME280;6168;42.658;23.298;2022-07-06T15:18:58;64063.53;;;-139.92;49.66
12211;BME280;6168;42.658;23.298;2022-07-06T15:21:25;64048.97;;;-139.92;49.71
12211;BME280;6168;42.658;23.298;2022-07-06T15:23:53;64034.41;;;-139.92;50.58
12211;BME280;6168;42.658;23.298;2022-07-06T15:26:20;64036.47;;;-139.92;49.12
12211;BME280;6168;42.658;23.298;2022-07-06T15:28:47;64082.28;;;-139.92;48.03
12211;BME280;6168;42.658;23.298;2022-07-06T15:31:13;64053.13;;;-139.92;47.62
12211;BME280;6168;42.658;23.298;2022-07-06T15:33:40;64069.78;;;-139.92;47.91
12211;BME280;6168;42.658;23.298;2022-07-06T15:36:08;64088.53;;;-139.92;48.78
12211;BME280;6168;42.658;23.298;2022-07-06T15:38:35;64059.38;;;-139.92;48.85
12211;BME280;6168;42.658;23.298;2022-07-06T15:41:03;64082.28;;;-139.92;46.61
12211;BME280;6168;42.658;23.298;2022-07-06T15:43:30;64048.97;;;-139.92;46.42
12211;BME280;6168;42.658;23.298;2022-07-06T15:45:58;64098.94;;;-139.92;46.06
12211;BME280;6168;42.658;23.298;2022-07-06T15:48:26;64069.78;;;-139.92;45.85
12211;BME280;6168;42.658;23.298;2022-07-06T15:50:54;64071.88;;;-139.92;46.87
12211;BME280;6168;42.658;23.298;2022-07-06T15:53:21;64063.53;;;-139.92;45.58
12211;BME280;6168;42.658;23.298;2022-07-06T15:55:49;64094.78;;;-139.92;46.45
12211;BME280;6168;42.658;23.298;2022-07-06T15:58:17;64107.28;;;-139.92;46.30
12211;BME280;6168;42.658;23.298;2022-07-06T16:00:44;64090.63;;;-139.92;45.27
12211;BME280;6168;42.658;23.298;2022-07-06T16:03:11;64094.78;;;-139.92;45.32
12211;BME280;6168;42.658;23.298;2022-07-06T16:05:38;64130.19;;;-139.92;43.84
12211;BME280;6168;42.658;23.298;2022-07-06T16:08:05;64088.53;;;-139.92;45.08
12211;BME280;6168;42.658;23.298;2022-07-06T16:10:32;64105.19;;;-139.92;44.44
12211;BME280;6168;42.658;23.298;2022-07-06T16:12:59;64073.97;;;-139.92;44.45
12211;BME280;6168;42.658;23.298;2022-07-06T16:15:28;64090.63;;;-139.92;46.11
12211;BME280;6168;42.658;23.298;2022-07-06T16:17:55;64094.78;;;-139.92;45.56
12211;BME280;6168;42.658;23.298;2022-07-06T16:20:22;64036.47;;;-139.92;46.63
12211;BME280;6168;42.658;23.298;2022-07-06T16:22:48;64071.88;;;-139.92;45.64
12211;BME280;6168;42.658;23.298;2022-07-06T16:25:16;64103.09;;;-139.92;47.48
12211;BME280;6168;42.658;23.298;2022-07-06T16:27:43;64078.13;;;-139.92;48.19
12211;BME280;6168;42.658;23.298;2022-07-06T16:30:11;64086.44;;;-139.92;45.40
12211;BME280;6168;42.658;23.298;2022-07-06T16:32:40;64065.63;;;-139.92;46.31
12211;BME280;6168;42.658;23.298;2022-07-06T16:35:08;64073.97;;;-139.92;46.34
12211;BME280;6168;42.658;23.298;2022-07-06T16:37:35;64059.38;;;-139.92;45.91
12211;BME280;6168;42.658;23.298;2022-07-06T16:40:02;64063.53;;;-139.92;46.09